Time;durP1;ratioP1;P1;durP2;ratioP2;P2;SDS_P1;SDS_P2;PMS_P1;PMS_P2;Temp;Humidity;BMP_temperature;BMP_pressure;BME280_temperature;BME280_humidity;BME280_pressure;Samples;Min_cycle;Max_cycle;Signal;HPM_P1;HPM_P2
2021/09/08 00:00:52;;;;;;;3.33;3.03;;;24.10;46.70;;;;;;5011144;28;20513;-40
2021/09/08 00:03:19;;;;;;;3.42;3.13;;;24.00;46.60;;;;;;5012661;28;20195;-41
2021/09/08 00:05:45;;;;;;;3.20;2.90;;;24.00;46.60;;;;;;5010903;28;20591;-42
2021/09/08 00:08:12;;;;;;;3.15;2.95;;;24.00;46.60;;;;;;5012268;28;20651;-42
2021/09/08 00:10:38;;;;;;;4.03;3.47;;;24.10;46.70;;;;;;5009368;28;20683;-46
2021/09/08 00:13:05;;;;;;;3.28;2.97;;;24.00;46.60;;;;;;5012448;28;20217;-40
2021/09/08 00:15:31;;;;;;;3.40;3.10;;;24.00;47.30;;;;;;5010802;28;20663;-42
2021/09/08 00:17:57;;;;;;;3.42;3.13;;;24.00;46.70;;;;;;5012105;28;20195;-45
2021/09/08 00:20:24;;;;;;;3.30;3.05;;;24.00;46.70;;;;;;5008806;28;20315;-44
2021/09/08 00:22:50;;;;;;;3.65;3.35;;;24.00;46.60;;;;;;5012706;28;20207;-45
2021/09/08 00:25:17;;;;;;;3.50;3.20;;;24.00;46.60;;;;;;5009760;28;20237;-40
2021/09/08 00:27:43;;;;;;;3.70;3.40;;;24.00;46.70;;;;;;4996788;28;20611;-44
2021/09/08 00:30:10;;;;;;;3.53;3.22;;;24.00;46.60;;;;;;5011247;28;20585;-40
2021/09/08 00:32:36;;;;;;;3.50;3.20;;;24.10;46.70;;;;;;5012133;28;20222;-41
2021/09/08 00:35:03;;;;;;;3.28;2.85;;;24.00;46.60;;;;;;5010706;28;20199;-53
2021/09/08 00:37:29;;;;;;;3.50;3.20;;;24.00;46.60;;;;;;5012325;28;20211;-40
2021/09/08 00:39:55;;;;;;;3.40;3.10;;;24.00;46.60;;;;;;5010357;28;20249;-41
2021/09/08 00:42:22;;;;;;;3.58;3.13;;;24.00;46.60;;;;;;5009965;28;20556;-39
2021/09/08 00:44:48;;;;;;;3.45;3.15;;;24.00;46.60;;;;;;4998568;28;20763;-39
2021/09/08 00:47:15;;;;;;;3.25;2.95;;;24.00;46.60;;;;;;5011582;28;20204;-38
2021/09/08 00:49:41;;;;;;;3.83;3.53;;;24.00;46.60;;;;;;5010093;28;20298;-37
2021/09/08 00:52:08;;;;;;;3.38;3.08;;;24.00;46.60;;;;;;5012116;28;20231;-39
2021/09/08 00:54:34;;;;;;;3.55;3.25;;;24.00;46.70;;;;;;5010061;28;20233;-38
2021/09/08 00:57:00;;;;;;;3.45;3.15;;;24.00;46.60;;;;;;5012074;28;20571;-40
2021/09/08 00:59:27;;;;;;;3.38;3.08;;;24.00;46.70;;;;;;5009317;28;20256;-39
2021/09/08 01:01:53;;;;;;;3.45;3.15;;;24.00;46.70;;;;;;5011584;28;20581;-38
2021/09/08 01:04:20;;;;;;;3.22;2.95;;;24.00;46.60;;;;;;5009342;28;20682;-38
2021/09/08 01:06:46;;;;;;;3.38;3.08;;;24.00;47.30;;;;;;5010525;28;20655;-38
2021/09/08 01:09:13;;;;;;;3.30;3.00;;;24.00;46.70;;;;;;5008291;28;20682;-38
2021/09/08 01:11:39;;;;;;;3.03;2.83;;;24.00;46.70;;;;;;5009637;28;20233;-38
2021/09/08 01:14:06;;;;;;;3.22;3.00;;;24.00;46.60;;;;;;5010244;28;20720;-38
2021/09/08 01:16:32;;;;;;;3.17;2.97;;;24.00;46.70;;;;;;5011218;28;20681;-38
2021/09/08 01:18:58;;;;;;;3.53;3.22;;;24.00;46.70;;;;;;5010179;28;20227;-38
2021/09/08 01:21:25;;;;;;;3.83;2.95;;;24.00;46.70;;;;;;5011015;28;20203;-38
2021/09/08 01:23:51;;;;;;;3.08;2.88;;;24.00;46.70;;;;;;5009253;28;20218;-38
2021/09/08 01:26:18;;;;;;;3.38;3.08;;;24.00;46.70;;;;;;5010812;28;20213;-38
2021/09/08 01:28:44;;;;;;;3.47;3.17;;;24.00;46.70;;;;;;5009828;28;20826;-38
2021/09/08 01:31:11;;;;;;;3.70;3.30;;;24.00;46.70;;;;;;5010528;28;20223;-39
2021/09/08 01:33:37;;;;;;;3.17;2.97;;;24.00;46.70;;;;;;5008229;28;20209;-38
2021/09/08 01:36:03;;;;;;;3.40;3.10;;;24.00;46.70;;;;;;5011357;28;20199;-37
2021/09/08 01:38:30;;;;;;;3.35;3.05;;;24.00;46.70;;;;;;5009320;28;20225;-37
2021/09/08 01:40:56;;;;;;;3.53;3.22;;;24.00;46.70;;;;;;5010016;28;20206;-38
2021/09/08 01:43:23;;;;;;;3.10;2.80;;;24.00;46.70;;;;;;5010577;28;20200;-38
2021/09/08 01:45:49;;;;;;;3.22;2.92;;;24.00;46.90;;;;;;5010109;28;20219;-38
2021/09/08 01:48:16;;;;;;;3.13;2.83;;;24.00;46.90;;;;;;5011040;28;20198;-38
2021/09/08 01:50:43;;;;;;;3.13;2.83;;;24.00;46.90;;;;;;5009443;28;20290;-38
2021/09/08 01:53:09;;;;;;;3.45;3.10;;;24.00;46.90;;;;;;5009407;28;20242;-38
2021/09/08 01:55:35;;;;;;;3.30;3.00;;;24.00;47.10;;;;;;5001070;28;20211;-38
2021/09/08 01:58:02;;;;;;;2.88;2.63;;;24.00;46.90;;;;;;5011149;28;20290;-38
2021/09/08 02:00:29;;;;;;;3.50;3.10;;;24.00;46.90;;;;;;5008543;28;20203;-38
2021/09/08 02:02:55;;;;;;;3.58;2.78;;;24.00;46.90;;;;;;5008722;28;20273;-39
2021/09/08 02:05:23;;;;;;;3.17;2.90;;;24.00;46.90;;;;;;5009667;28;20223;-37
2021/09/08 02:07:49;;;;;;;3.70;3.25;;;24.00;46.90;;;;;;5010100;28;20207;-37
2021/09/08 02:10:16;;;;;;;3.50;3.17;;;24.00;46.90;;;;;;5011341;28;20203;-38
2021/09/08 02:12:45;;;;;;;3.40;3.10;;;24.00;46.90;;;;;;5007490;28;20281;-38
2021/09/08 02:15:11;;;;;;;3.38;3.08;;;24.00;46.90;;;;;;5007630;28;20207;-38
2021/09/08 02:17:38;;;;;;;3.45;3.15;;;24.00;46.90;;;;;;5010910;28;20205;-43
2021/09/08 02:20:04;;;;;;;3.22;2.92;;;24.00;46.90;;;;;;5009473;28;20223;-42
2021/09/08 02:22:31;;;;;;;3.30;3.00;;;24.00;46.90;;;;;;5009840;28;20206;-40
2021/09/08 02:24:57;;;;;;;3.25;2.75;;;24.00;46.90;;;;;;5009148;28;20207;-39
2021/09/08 02:27:24;;;;;;;3.42;3.13;;;24.00;46.90;;;;;;5010497;28;20230;-41
2021/09/08 02:29:51;;;;;;;4.32;3.55;;;24.00;46.90;;;;;;5007561;28;20219;-39
2021/09/08 02:32:17;;;;;;;2.92;2.72;;;24.00;46.90;;;;;;5008476;28;20237;-39
2021/09/08 02:34:44;;;;;;;3.25;2.95;;;24.00;46.90;;;;;;5010279;28;20528;-39
2021/09/08 02:37:10;;;;;;;3.28;2.97;;;24.00;46.90;;;;;;5010961;28;20513;-42
2021/09/08 02:39:37;;;;;;;3.95;3.47;;;24.00;46.90;;;;;;5013095;28;20714;-41
2021/09/08 02:42:03;;;;;;;3.75;2.80;;;24.00;46.90;;;;;;5011027;28;20601;-41
2021/09/08 02:44:30;;;;;;;3.22;2.97;;;24.00;46.90;;;;;;5014046;28;20290;-38
2021/09/08 02:46:56;;;;;;;3.83;3.53;;;24.00;46.90;;;;;;5012635;28;20285;-40
2021/09/08 02:49:22;;;;;;;3.35;3.05;;;24.00;46.90;;;;;;5014284;28;20233;-40
2021/09/08 02:51:49;;;;;;;3.25;2.95;;;24.00;46.90;;;;;;5000669;28;20229;-42
2021/09/08 02:54:15;;;;;;;3.10;2.80;;;24.00;46.90;;;;;;5013371;28;20206;-40
2021/09/08 02:56:42;;;;;;;3.00;2.80;;;24.00;46.90;;;;;;5013936;28;20195;-43
2021/09/08 02:59:09;;;;;;;3.33;3.03;;;24.00;46.90;;;;;;5012326;28;20230;-38
2021/09/08 03:01:35;;;;;;;3.35;3.08;;;24.00;46.90;;;;;;5013724;28;20205;-43
2021/09/08 03:04:02;;;;;;;3.33;3.10;;;24.00;46.90;;;;;;5011978;28;20199;-39
2021/09/08 03:06:28;;;;;;;2.90;2.70;;;24.00;46.90;;;;;;5012398;28;20221;-45
2021/09/08 03:08:57;;;;;;;3.30;3.00;;;24.00;46.90;;;;;;5013656;28;20237;-43
2021/09/08 03:11:23;;;;;;;3.40;3.10;;;24.00;46.90;;;;;;5012358;28;20822;-41
2021/09/08 03:13:49;;;;;;;3.33;3.03;;;24.00;46.90;;;;;;5011575;28;20635;-38
2021/09/08 03:16:16;;;;;;;3.35;3.00;;;24.00;46.90;;;;;;5011117;28;20574;-41
2021/09/08 03:18:43;;;;;;;3.15;2.88;;;24.00;46.90;;;;;;5012727;28;20540;-43
2021/09/08 03:21:09;;;;;;;3.35;3.05;;;24.00;46.90;;;;;;5012043;28;20541;-39
2021/09/08 03:23:36;;;;;;;3.28;2.97;;;24.00;46.90;;;;;;5012679;28;20728;-39
2021/09/08 03:26:02;;;;;;;3.50;3.20;;;24.00;46.90;;;;;;5011126;28;20682;-41
2021/09/08 03:28:29;;;;;;;2.92;2.72;;;24.00;46.90;;;;;;5013414;28;20730;-38
2021/09/08 03:30:55;;;;;;;5.05;3.20;;;24.00;46.90;;;;;;5010232;28;20211;-43
2021/09/08 03:33:21;;;;;;;3.22;2.92;;;24.00;46.90;;;;;;5012713;28;20233;-38
2021/09/08 03:35:48;;;;;;;3.40;3.10;;;24.00;46.90;;;;;;5011220;28;20199;-38
2021/09/08 03:38:14;;;;;;;3.10;2.80;;;24.00;46.90;;;;;;5013295;28;20230;-43
2021/09/08 03:40:41;;;;;;;2.83;2.63;;;24.00;46.90;;;;;;5010259;28;20207;-39
2021/09/08 03:43:07;;;;;;;2.92;2.72;;;24.00;46.90;;;;;;5013359;28;20204;-41
2021/09/08 03:45:34;;;;;;;3.33;3.03;;;24.00;46.90;;;;;;5010719;28;20207;-44
2021/09/08 03:48:00;;;;;;;3.53;3.22;;;24.00;46.90;;;;;;5012820;28;20310;-42
2021/09/08 03:50:27;;;;;;;2.85;2.63;;;24.00;46.90;;;;;;5009793;28;20217;-38
2021/09/08 03:52:54;;;;;;;3.00;2.80;;;24.00;46.90;;;;;;5011737;28;20269;-41
2021/09/08 03:55:21;;;;;;;3.33;3.03;;;24.00;47.00;;;;;;5008894;28;20207;-40
2021/09/08 03:57:47;;;;;;;2.97;2.78;;;24.00;47.00;;;;;;5004426;28;20397;-44
2021/09/08 04:00:13;;;;;;;2.78;2.58;;;24.00;47.00;;;;;;5012911;28;20199;-39
2021/09/08 04:02:40;;;;;;;3.30;3.00;;;24.00;47.00;;;;;;5011755;28;20294;-43
2021/09/08 04:05:06;;;;;;;3.40;3.10;;;24.00;47.00;;;;;;5012256;28;20202;-39
2021/09/08 04:07:33;;;;;;;3.35;3.05;;;24.00;47.00;;;;;;5010950;28;20199;-45
2021/09/08 04:10:00;;;;;;;3.78;2.83;;;24.00;47.00;;;;;;5012605;28;20195;-39
2021/09/08 04:12:26;;;;;;;3.17;2.97;;;24.00;47.00;;;;;;5011089;28;20315;-41
2021/09/08 04:14:53;;;;;;;3.00;2.70;;;24.00;47.10;;;;;;5011242;28;20211;-38
2021/09/08 04:17:20;;;;;;;2.63;2.42;;;24.00;47.00;;;;;;5011503;28;20203;-42
2021/09/08 04:19:46;;;;;;;3.15;2.83;;;24.00;47.10;;;;;;5012156;28;20205;-39
2021/09/08 04:22:12;;;;;;;3.63;3.33;;;24.00;47.00;;;;;;5009797;28;20213;-40
2021/09/08 04:24:39;;;;;;;4.00;3.10;;;24.00;47.10;;;;;;5011371;28;20207;-40
2021/09/08 04:27:05;;;;;;;3.25;2.97;;;24.00;47.10;;;;;;5010092;28;20207;-39
2021/09/08 04:29:32;;;;;;;3.58;2.90;;;24.00;47.10;;;;;;5012121;28;20223;-40
2021/09/08 04:31:58;;;;;;;3.05;2.80;;;24.00;47.00;;;;;;5011007;28;20253;-41
2021/09/08 04:34:25;;;;;;;2.95;2.75;;;24.00;47.10;;;;;;5011598;28;20205;-42
2021/09/08 04:36:51;;;;;;;2.75;2.50;;;24.00;47.00;;;;;;5010743;28;20234;-42
2021/09/08 04:39:18;;;;;;;3.33;3.03;;;24.00;47.00;;;;;;5012329;28;20229;-42
2021/09/08 04:41:44;;;;;;;3.15;2.88;;;24.00;47.00;;;;;;5011176;28;20199;-43
2021/09/08 04:44:10;;;;;;;3.20;2.90;;;24.00;47.00;;;;;;5010211;28;20200;-40
2021/09/08 04:46:37;;;;;;;3.10;2.90;;;24.00;47.00;;;;;;5011688;28;20213;-43
2021/09/08 04:49:03;;;;;;;3.40;3.10;;;24.00;47.10;;;;;;5010928;28;20306;-42
2021/09/08 04:51:30;;;;;;;3.13;2.92;;;24.00;47.00;;;;;;5011583;28;20213;-45
2021/09/08 04:53:56;;;;;;;3.00;2.80;;;24.00;47.00;;;;;;5010876;28;20199;-41
2021/09/08 04:56:23;;;;;;;3.20;2.90;;;24.00;47.10;;;;;;5011217;28;20209;-39
2021/09/08 04:58:49;;;;;;;3.67;2.45;;;24.00;47.10;;;;;;5010180;28;20233;-39
2021/09/08 05:01:16;;;;;;;3.00;2.70;;;23.90;47.70;;;;;;5009221;28;20285;-38
2021/09/08 05:03:42;;;;;;;3.00;2.80;;;23.90;47.00;;;;;;5010446;28;20211;-39
2021/09/08 05:06:08;;;;;;;3.03;2.83;;;24.00;47.10;;;;;;5010397;28;20289;-42
2021/09/08 05:08:35;;;;;;;3.40;3.10;;;24.00;47.10;;;;;;5010397;28;20235;-43
2021/09/08 05:11:01;;;;;;;2.85;2.65;;;23.90;47.00;;;;;;5011559;28;20205;-41
2021/09/08 05:13:28;;;;;;;3.00;2.80;;;24.00;47.10;;;;;;5009659;28;20237;-41
2021/09/08 05:15:54;;;;;;;3.15;2.85;;;24.00;47.10;;;;;;5009464;28;20203;-43
2021/09/08 05:18:21;;;;;;;3.38;3.08;;;24.00;47.10;;;;;;5010931;28;20261;-41
2021/09/08 05:20:47;;;;;;;2.92;2.72;;;23.90;47.00;;;;;;5010520;28;20207;-40
2021/09/08 05:23:13;;;;;;;3.20;2.90;;;24.00;47.20;;;;;;5011355;28;20214;-39
2021/09/08 05:25:40;;;;;;;3.08;2.78;;;24.00;47.20;;;;;;5008790;28;20225;-42
2021/09/08 05:28:07;;;;;;;3.30;3.00;;;24.00;47.20;;;;;;5009814;28;20227;-40
2021/09/08 05:30:34;;;;;;;2.83;2.63;;;24.00;47.20;;;;;;5009840;28;20286;-39
2021/09/08 05:33:00;;;;;;;2.80;2.60;;;24.00;47.20;;;;;;5010887;28;20230;-41
2021/09/08 05:35:27;;;;;;;3.20;2.90;;;24.00;47.30;;;;;;5009482;28;20203;-43
2021/09/08 05:37:53;;;;;;;3.35;3.08;;;24.00;47.50;;;;;;5011168;28;20225;-41
2021/09/08 05:40:20;;;;;;;3.00;2.80;;;24.00;47.60;;;;;;5009794;28;20198;-38
2021/09/08 05:42:46;;;;;;;3.03;2.78;;;24.00;47.50;;;;;;5011101;28;20293;-42
2021/09/08 05:45:13;;;;;;;3.53;2.92;;;24.00;47.40;;;;;;5008669;28;20936;-41
2021/09/08 05:47:39;;;;;;;2.90;2.60;;;24.00;47.40;;;;;;5010561;28;20580;-41
2021/09/08 05:50:05;;;;;;;3.83;2.97;;;24.00;47.40;;;;;;5009896;28;20575;-39
2021/09/08 05:52:32;;;;;;;3.22;2.92;;;24.00;47.40;;;;;;5000105;28;20582;-39
2021/09/08 05:54:58;;;;;;;2.92;2.72;;;24.00;47.40;;;;;;5010391;28;20560;-42
2021/09/08 05:57:25;;;;;;;3.47;2.97;;;24.00;47.30;;;;;;5002489;28;20742;-40
2021/09/08 05:59:52;;;;;;;3.05;2.85;;;24.00;47.30;;;;;;5010710;28;20200;-39
2021/09/08 06:02:18;;;;;;;3.15;2.85;;;24.00;47.30;;;;;;5009628;28;20201;-40
2021/09/08 06:04:46;;;;;;;2.92;2.70;;;23.90;47.20;;;;;;5009856;28;20203;-41
2021/09/08 06:07:12;;;;;;;3.08;2.88;;;24.00;47.30;;;;;;5009654;28;20215;-40
2021/09/08 06:09:39;;;;;;;3.00;2.80;;;23.90;47.20;;;;;;5008864;28;20638;-42
2021/09/08 06:12:05;;;;;;;3.08;2.80;;;23.90;47.10;;;;;;5011684;28;20577;-42
2021/09/08 06:14:32;;;;;;;2.83;2.63;;;23.90;47.10;;;;;;5012562;28;20203;-40
2021/09/08 06:16:58;;;;;;;3.20;2.90;;;24.00;47.20;;;;;;5013551;28;20282;-41
2021/09/08 06:19:25;;;;;;;3.20;2.90;;;23.90;47.10;;;;;;5013896;28;20209;-39
2021/09/08 06:21:51;;;;;;;3.10;2.90;;;24.00;47.10;;;;;;5014448;28;20202;-38
2021/09/08 06:24:18;;;;;;;3.05;2.85;;;23.90;47.00;;;;;;5012099;28;20196;-41
2021/09/08 06:26:44;;;;;;;3.40;3.10;;;23.90;47.00;;;;;;5012401;28;20261;-43
2021/09/08 06:29:11;;;;;;;3.08;2.88;;;23.90;47.00;;;;;;5012453;28;20210;-40
2021/09/08 06:31:37;;;;;;;2.88;2.67;;;23.90;47.00;;;;;;5013235;28;20199;-41
2021/09/08 06:34:03;;;;;;;3.30;3.00;;;24.00;47.10;;;;;;5011977;28;20284;-40
2021/09/08 06:36:30;;;;;;;3.10;2.90;;;24.00;47.00;;;;;;5012806;28;20203;-41
2021/09/08 06:38:56;;;;;;;3.00;2.80;;;24.00;47.00;;;;;;5012037;28;20229;-43
2021/09/08 06:41:23;;;;;;;2.95;2.75;;;23.90;46.90;;;;;;5013585;28;20302;-39
2021/09/08 06:43:49;;;;;;;3.15;2.90;;;23.90;46.90;;;;;;5012326;28;20202;-41
2021/09/08 06:46:16;;;;;;;12.35;3.38;;;24.00;47.00;;;;;;5013388;28;20215;-41
2021/09/08 06:48:42;;;;;;;2.67;2.47;;;23.90;46.80;;;;;;5013050;28;20223;-47
2021/09/08 06:51:09;;;;;;;3.00;2.70;;;23.90;46.80;;;;;;5013582;28;20206;-44
2021/09/08 06:53:37;;;;;;;3.85;2.80;;;24.00;46.90;;;;;;5013360;28;20223;-44
2021/09/08 06:56:03;;;;;;;3.47;3.15;;;23.90;46.80;;;;;;5011949;28;20663;-42
2021/09/08 06:58:30;;;;;;;3.60;3.30;;;24.00;46.90;;;;;;5012160;28;20227;-42
2021/09/08 07:00:56;;;;;;;3.20;2.90;;;23.90;46.80;;;;;;5012816;28;20429;-44
2021/09/08 07:03:23;;;;;;;3.45;3.15;;;23.90;46.80;;;;;;5012207;28;20199;-42
2021/09/08 07:05:49;;;;;;;3.28;2.97;;;24.00;46.90;;;;;;5005004;28;20203;-39
2021/09/08 07:08:16;;;;;;;2.80;2.60;;;24.00;46.80;;;;;;5005737;28;20237;-39
2021/09/08 07:10:43;;;;;;;2.60;2.30;;;24.00;46.80;;;;;;5007273;28;20269;-38
2021/09/08 07:13:09;;;;;;;3.20;2.92;;;24.00;47.10;;;;;;5006174;28;20219;-47
2021/09/08 07:15:36;;;;;;;4.05;3.45;;;24.00;47.20;;;;;;5004949;28;20219;-42
2021/09/08 07:18:02;;;;;;;3.70;3.40;;;24.00;47.50;;;;;;5005203;28;20234;-49
2021/09/08 07:20:29;;;;;;;5.55;3.70;;;24.00;47.30;;;;;;5007906;28;20891;-40
2021/09/08 07:22:55;;;;;;;3.28;2.97;;;24.00;47.30;;;;;;5005744;28;20675;-37
2021/09/08 07:25:22;;;;;;;3.55;3.15;;;24.10;47.60;;;;;;5003902;28;20393;-43
2021/09/08 07:27:49;;;;;;;3.55;3.25;;;24.10;47.60;;;;;;5006099;28;20226;-38
2021/09/08 07:30:15;;;;;;;5.03;3.80;;;24.10;47.60;;;;;;5002662;28;20295;-39
2021/09/08 07:32:42;;;;;;;6.20;3.55;;;24.10;48.00;;;;;;5005021;28;20227;-38
2021/09/08 07:35:09;;;;;;;6.57;4.13;;;24.10;48.30;;;;;;5004922;28;20305;-39
2021/09/08 07:37:37;;;;;;;6.35;3.50;;;24.20;48.70;;;;;;5004963;28;20219;-38
2021/09/08 07:40:03;;;;;;;5.65;3.78;;;24.20;48.50;;;;;;5004430;28;20211;-38
2021/09/08 07:42:30;;;;;;;11.15;5.22;;;24.20;48.40;;;;;;5004978;28;20200;-39
2021/09/08 07:44:56;;;;;;;9.55;5.10;;;24.20;48.80;;;;;;5012082;28;20206;-40
2021/09/08 07:47:23;;;;;;;9.15;4.65;;;24.20;49.00;;;;;;5012889;28;20223;-42
2021/09/08 07:49:49;;;;;;;13.50;7.45;;;24.20;49.50;;;;;;5010819;28;20199;-43
2021/09/08 07:52:15;;;;;;;16.10;7.88;;;24.20;47.80;;;;;;5010119;28;20214;-43
2021/09/08 07:54:42;;;;;;;9.95;6.95;;;23.90;47.60;;;;;;5011292;28;20203;-42
2021/09/08 07:57:08;;;;;;;8.18;7.18;;;23.80;45.10;;;;;;5012988;28;20215;-40
2021/09/08 07:59:35;;;;;;;8.90;7.60;;;23.80;45.60;;;;;;5012009;28;20211;-39
2021/09/08 08:02:01;;;;;;;8.57;7.45;;;23.80;43.90;;;;;;5011097;28;20204;-42
2021/09/08 08:04:28;;;;;;;8.48;7.38;;;23.60;42.60;;;;;;5011723;28;20203;-45
2021/09/08 08:06:54;;;;;;;8.23;7.47;;;23.60;42.60;;;;;;5011674;28;20225;-42
2021/09/08 08:09:20;;;;;;;8.20;7.22;;;23.60;41.90;;;;;;5012526;28;20203;-46
2021/09/08 08:11:47;;;;;;;7.53;6.80;;;23.50;41.40;;;;;;5011006;28;20211;-40
2021/09/08 08:14:16;;;;;;;8.32;7.35;;;23.50;41.20;;;;;;5011984;28;20223;-41
2021/09/08 08:16:42;;;;;;;10.43;6.90;;;23.50;41.50;;;;;;5006426;28;20230;-40
2021/09/08 08:19:08;;;;;;;9.95;7.18;;;23.50;41.20;;;;;;5004152;28;20213;-41
2021/09/08 08:21:35;;;;;;;7.68;6.97;;;23.50;41.50;;;;;;5005208;28;20200;-44
2021/09/08 08:24:02;;;;;;;7.30;6.32;;;23.60;42.10;;;;;;5002998;28;20216;-40
2021/09/08 08:26:28;;;;;;;7.90;6.63;;;23.60;42.60;;;;;;5004855;28;20229;-40
2021/09/08 08:28:54;;;;;;;7.32;6.43;;;23.70;42.90;;;;;;5004657;28;20213;-39
2021/09/08 08:31:21;;;;;;;7.25;6.50;;;23.80;43.80;;;;;;5005203;28;20203;-39
2021/09/08 08:33:49;;;;;;;7.30;6.25;;;23.80;43.80;;;;;;5003403;28;20227;-38
2021/09/08 08:36:15;;;;;;;8.35;6.20;;;23.80;44.30;;;;;;5010088;28;20293;-39
2021/09/08 08:38:44;;;;;;;6.68;6.07;;;23.90;44.50;;;;;;5007606;28;20203;-43
2021/09/08 08:41:10;;;;;;;6.30;5.70;;;23.90;44.60;;;;;;5006031;28;20198;-43
2021/09/08 08:43:36;;;;;;;7.32;5.70;;;23.90;44.70;;;;;;5011177;28;20746;-48
2021/09/08 08:46:03;;;;;;;6.13;5.55;;;23.90;45.50;;;;;;5010928;28;20203;-41
2021/09/08 08:48:31;;;;;;;5.80;5.30;;;24.00;45.00;;;;;;5009395;28;20210;-41
2021/09/08 08:50:57;;;;;;;5.40;4.90;;;24.00;45.00;;;;;;5011435;28;20215;-41
2021/09/08 08:53:24;;;;;;;5.53;5.00;;;24.00;45.20;;;;;;5009923;28;20227;-38
2021/09/08 08:55:51;;;;;;;6.38;5.13;;;24.00;45.20;;;;;;5010007;28;20234;-42
2021/09/08 08:58:17;;;;;;;5.25;4.80;;;24.00;45.30;;;;;;5009723;28;20211;-42
2021/09/08 09:00:43;;;;;;;5.30;4.80;;;24.00;45.50;;;;;;5008453;28;20207;-41
2021/09/08 09:03:10;;;;;;;5.47;4.97;;;24.00;45.60;;;;;;5011190;28;20199;-39
2021/09/08 09:05:36;;;;;;;7.53;5.15;;;24.00;45.70;;;;;;5009775;28;20286;-39
2021/09/08 09:08:03;;;;;;;6.60;4.90;;;24.00;45.60;;;;;;5007968;28;20237;-39
2021/09/08 09:10:29;;;;;;;5.63;4.25;;;24.00;45.70;;;;;;5010216;28;20208;-39
2021/09/08 09:12:56;;;;;;;5.45;4.72;;;24.00;45.70;;;;;;5010844;28;20199;-39
2021/09/08 09:15:22;;;;;;;6.35;4.50;;;24.00;45.80;;;;;;5010164;28;20284;-39
2021/09/08 09:17:48;;;;;;;5.28;4.72;;;24.00;46.00;;;;;;5000352;28;20231;-38
2021/09/08 09:20:15;;;;;;;4.82;4.32;;;24.00;46.00;;;;;;5006431;28;20195;-39
2021/09/08 09:22:41;;;;;;;4.80;4.40;;;24.00;46.00;;;;;;5007645;28;20227;-38
2021/09/08 09:25:08;;;;;;;4.50;4.10;;;24.00;46.10;;;;;;5006688;28;20285;-38
2021/09/08 09:27:35;;;;;;;6.13;4.07;;;24.00;46.40;;;;;;5004500;28;20576;-40
2021/09/08 09:30:01;;;;;;;4.55;4.15;;;24.00;46.40;;;;;;4999011;28;20203;-38
2021/09/08 09:32:27;;;;;;;4.32;3.92;;;24.00;46.60;;;;;;5010462;28;20286;-41
2021/09/08 09:34:54;;;;;;;4.90;4.35;;;24.00;46.40;;;;;;5010189;28;20227;-41
2021/09/08 09:37:20;;;;;;;5.43;3.80;;;24.00;46.40;;;;;;5004459;28;20219;-39
2021/09/08 09:39:47;;;;;;;5.45;4.25;;;24.00;46.30;;;;;;4995610;28;20204;-42
2021/09/08 09:42:13;;;;;;;5.72;4.40;;;24.00;46.40;;;;;;4998705;28;20195;-41
2021/09/08 09:44:40;;;;;;;4.80;4.00;;;24.00;46.30;;;;;;5010653;28;20553;-40
2021/09/08 09:47:06;;;;;;;4.70;4.20;;;24.00;46.40;;;;;;5012175;28;20695;-40
2021/09/08 09:49:33;;;;;;;4.85;4.45;;;24.10;46.40;;;;;;5015118;28;20677;-39
2021/09/08 09:51:59;;;;;;;5.25;4.03;;;24.00;46.30;;;;;;5014950;28;20203;-41
2021/09/08 09:54:26;;;;;;;5.25;4.72;;;24.00;46.30;;;;;;5014345;28;20228;-39
2021/09/08 09:56:52;;;;;;;5.97;4.90;;;24.10;47.00;;;;;;5015122;28;20219;-40
2021/09/08 09:59:19;;;;;;;4.85;4.35;;;24.00;46.30;;;;;;5015094;28;20203;-39
2021/09/08 10:01:45;;;;;;;5.40;4.68;;;24.00;46.30;;;;;;5015135;28;20206;-42
2021/09/08 10:04:12;;;;;;;5.70;4.40;;;24.00;46.30;;;;;;5012577;28;20213;-39
2021/09/08 10:06:38;;;;;;;5.63;5.05;;;24.10;46.30;;;;;;5010198;28;20309;-43
2021/09/08 10:09:05;;;;;;;6.90;5.22;;;24.10;46.40;;;;;;5015228;28;20206;-40
2021/09/08 10:11:34;;;;;;;6.22;5.15;;;24.10;46.40;;;;;;5014939;28;20210;-44
2021/09/08 10:14:00;;;;;;;7.00;4.88;;;24.00;46.30;;;;;;5013914;28;20226;-41
2021/09/08 10:16:27;;;;;;;8.85;5.75;;;24.10;46.40;;;;;;5014620;28;20223;-39
2021/09/08 10:18:53;;;;;;;5.65;4.47;;;24.10;46.50;;;;;;5010924;28;20211;-39
2021/09/08 10:21:20;;;;;;;7.13;5.25;;;24.10;47.50;;;;;;5009270;28;20199;-41
2021/09/08 10:23:46;;;;;;;6.15;4.82;;;24.10;47.40;;;;;;5007007;28;20230;-40
2021/09/08 10:26:13;;;;;;;7.95;5.40;;;24.10;47.70;;;;;;5005860;28;20233;-43
2021/09/08 10:28:39;;;;;;;6.38;4.60;;;24.20;47.40;;;;;;5007104;28;20399;-41
2021/09/08 10:31:06;;;;;;;6.82;4.70;;;24.20;47.90;;;;;;5008036;28;20195;-43
2021/09/08 10:33:32;;;;;;;7.05;4.72;;;24.20;47.60;;;;;;5006096;28;20235;-40
2021/09/08 10:35:58;;;;;;;6.60;4.90;;;24.20;47.60;;;;;;5006831;28;20215;-43
2021/09/08 10:38:25;;;;;;;5.57;4.60;;;24.20;47.60;;;;;;5006285;28;20207;-41
2021/09/08 10:40:51;;;;;;;6.13;4.93;;;24.20;47.80;;;;;;5006066;28;20215;-41
2021/09/08 10:43:18;;;;;;;7.43;4.57;;;24.20;48.20;;;;;;5006197;28;20213;-43
2021/09/08 10:45:44;;;;;;;5.05;4.47;;;24.20;48.10;;;;;;5003048;28;20797;-39
2021/09/08 10:48:11;;;;;;;7.50;4.65;;;24.30;48.70;;;;;;5011709;28;20210;-38
2021/09/08 10:50:37;;;;;;;6.00;4.80;;;24.30;48.40;;;;;;5012552;28;20223;-42
2021/09/08 10:53:04;;;;;;;6.55;4.63;;;24.30;48.20;;;;;;5013346;28;20200;-43
2021/09/08 10:55:31;;;;;;;7.28;5.32;;;24.30;48.40;;;;;;5010523;28;20371;-42
2021/09/08 10:57:58;;;;;;;5.18;4.10;;;24.30;48.80;;;;;;5012139;28;20575;-40
2021/09/08 11:00:25;;;;;;;5.05;4.55;;;24.30;48.50;;;;;;5011720;28;20207;-40
2021/09/08 11:02:51;;;;;;;4.85;4.45;;;24.30;48.40;;;;;;5013145;28;20279;-39
2021/09/08 11:05:18;;;;;;;6.53;5.20;;;24.30;48.40;;;;;;5011300;28;20237;-39
2021/09/08 11:07:44;;;;;;;6.03;4.97;;;24.30;48.90;;;;;;5013432;28;20203;-40
2021/09/08 11:10:11;;;;;;;5.43;4.70;;;24.30;48.60;;;;;;5011477;28;20199;-43
2021/09/08 11:12:37;;;;;;;7.28;4.88;;;24.30;48.70;;;;;;5012543;28;20210;-45
2021/09/08 11:15:04;;;;;;;5.78;4.65;;;24.30;48.70;;;;;;5012565;28;20233;-41
2021/09/08 11:17:31;;;;;;;6.45;4.60;;;24.20;48.10;;;;;;5011560;28;20203;-39
2021/09/08 11:19:59;;;;;;;4.93;4.43;;;24.20;48.10;;;;;;5004401;28;20608;-44
2021/09/08 11:22:26;;;;;;;5.80;4.70;;;24.20;48.30;;;;;;5011535;28;20196;-44
2021/09/08 11:24:52;;;;;;;5.88;5.20;;;24.20;47.90;;;;;;5009865;28;20513;-44
2021/09/08 11:27:23;;;;;;;6.55;4.88;;;24.20;48.00;;;;;;5009414;28;20583;-42
2021/09/08 11:29:50;;;;;;;9.45;5.32;;;24.20;48.00;;;;;;5006999;28;20235;-45
2021/09/08 11:32:16;;;;;;;5.28;4.75;;;24.20;48.40;;;;;;5004225;28;20219;-39
2021/09/08 11:34:43;;;;;;;6.03;5.07;;;24.20;48.30;;;;;;5000588;28;20241;-40
2021/09/08 11:37:09;;;;;;;8.07;5.55;;;24.20;48.20;;;;;;5012676;28;20203;-42
2021/09/08 11:39:36;;;;;;;6.72;4.80;;;24.20;48.20;;;;;;5012178;28;20207;-45
2021/09/08 11:42:03;;;;;;;6.03;4.90;;;24.20;47.80;;;;;;5011322;28;20203;-40
2021/09/08 11:44:30;;;;;;;6.07;5.30;;;24.20;47.90;;;;;;5002722;28;20922;-39
2021/09/08 11:46:57;;;;;;;5.10;4.60;;;24.20;47.80;;;;;;5010076;28;20813;-41
2021/09/08 11:49:23;;;;;;;6.07;4.80;;;24.20;47.80;;;;;;5012038;28;20619;-46
2021/09/08 11:51:50;;;;;;;5.93;4.80;;;24.20;47.80;;;;;;5012243;28;20528;-43
2021/09/08 11:54:16;;;;;;;5.55;4.85;;;24.20;47.80;;;;;;5010908;28;20253;-44
2021/09/08 11:56:42;;;;;;;6.00;5.03;;;24.20;47.90;;;;;;5010360;28;20215;-42
2021/09/08 11:59:09;;;;;;;4.70;4.30;;;24.20;47.90;;;;;;5012667;28;20199;-44
2021/09/08 12:01:35;;;;;;;5.15;4.65;;;24.20;47.90;;;;;;5010158;28;20656;-41
2021/09/08 12:04:02;;;;;;;6.05;4.90;;;24.20;47.80;;;;;;5010062;28;20298;-43
2021/09/08 12:06:28;;;;;;;5.97;5.25;;;24.20;47.80;;;;;;5011987;28;20245;-40
2021/09/08 12:08:55;;;;;;;5.45;4.95;;;24.20;47.80;;;;;;5011947;28;20290;-45
2021/09/08 12:11:21;;;;;;;6.03;5.43;;;24.20;47.90;;;;;;5012054;28;20668;-40
2021/09/08 12:13:48;;;;;;;6.82;5.30;;;24.20;47.80;;;;;;5010190;28;20794;-45
2021/09/08 12:16:14;;;;;;;6.35;5.40;;;24.20;47.80;;;;;;5012312;28;20219;-43
2021/09/08 12:18:41;;;;;;;5.50;4.90;;;24.20;47.80;;;;;;4999290;28;20686;-41
2021/09/08 12:21:07;;;;;;;11.30;6.22;;;24.20;47.80;;;;;;5008246;28;20640;-40
2021/09/08 12:23:34;;;;;;;6.53;5.90;;;24.20;47.80;;;;;;5010678;28;20199;-42
2021/09/08 12:26:00;;;;;;;6.38;5.22;;;24.30;48.00;;;;;;5010957;28;20319;-47
2021/09/08 12:28:27;;;;;;;6.15;5.32;;;24.20;48.30;;;;;;5010801;28;20217;-44
2021/09/08 12:30:53;;;;;;;6.88;5.68;;;24.30;48.60;;;;;;5004091;28;20290;-42
2021/09/08 12:33:19;;;;;;;8.00;5.13;;;24.30;48.40;;;;;;5011177;28;20210;-41
2021/09/08 12:35:49;;;;;;;8.30;4.97;;;24.30;48.30;;;;;;5011046;28;20318;-44
2021/09/08 12:38:15;;;;;;;5.70;5.05;;;24.30;48.40;;;;;;5012000;28;20611;-45
2021/09/08 12:40:42;;;;;;;5.97;5.38;;;24.30;48.30;;;;;;5011742;28;20302;-45